Time;durP1;ratioP1;P1;durP2;ratioP2;P2;SDS_P1;SDS_P2;PMS_P1;PMS_P2;Temp;Humidity;BMP_temperature;BMP_pressure;BME280_temperature;BME280_humidity;BME280_pressure;Samples;Min_cycle;Max_cycle;Signal;HPM_P1;HPM_P2
2023/01/17 00:01:59;;;;;;;1.50;1.10;;;4.00;99.90;;;;;;7361372;19;20045;-61
2023/01/17 00:10:06;;;;;;;4.60;1.10;;;4.00;99.90;;;;;;7363420;19;20015;-61
2023/01/17 00:12:33;;;;;;;6.45;1.15;;;4.00;99.90;;;;;;7361714;19;20029;-60
2023/01/17 00:15:08;;;;;;;3.42;1.35;;;4.00;99.90;;;;;;7361509;19;20070;-60
2023/01/17 00:17:34;;;;;;;5.15;1.60;;;4.10;99.90;;;;;;7368511;19;20018;-64
2023/01/17 01:35:34;;;;;;;2.42;0.70;;;3.10;99.90;;;;;;7377960;19;20472;-64
2023/01/17 01:38:01;;;;;;;2.08;1.00;;;3.10;99.90;;;;;;7375117;19;20509;-64
2023/01/17 01:40:27;;;;;;;3.47;0.77;;;3.10;99.90;;;;;;7370717;19;20615;-61
2023/01/17 01:42:57;;;;;;;7.28;0.85;;;3.10;99.90;;;;;;7363348;19;20022;-61
2023/01/17 01:45:26;;;;;;;5.13;0.90;;;3.10;99.90;;;;;;7365633;19;20385;-60
2023/01/17 01:48:34;;;;;;;8.13;1.00;;;3.10;99.90;;;;;;7373183;19;20015;-64
2023/01/17 01:51:05;;;;;;;5.85;0.95;;;3.10;99.90;;;;;;7375228;19;20010;-64
2023/01/17 01:53:35;;;;;;;4.88;1.30;;;3.10;99.90;;;;;;7377067;19;20022;-64
2023/01/17 01:56:04;;;;;;;4.63;0.95;;;3.10;99.90;;;;;;7375102;19;20024;-61
2023/01/17 01:58:33;;;;;;;3.33;1.02;;;3.00;99.90;;;;;;7367121;19;20019;-61
2023/01/17 02:00:59;;;;;;;5.60;2.20;;;3.10;99.90;;;;;;7363522;19;20829;-61
2023/01/17 02:03:29;;;;;;;5.13;1.10;;;3.10;99.90;;;;;;7366385;19;20094;-61
2023/01/17 02:06:02;;;;;;;3.05;0.82;;;3.00;99.90;;;;;;7368089;19;20024;-61
2023/01/17 02:08:30;;;;;;;7.60;1.10;;;3.00;99.90;;;;;;7367267;19;20015;-61
2023/01/17 02:10:56;;;;;;;5.13;0.90;;;3.00;99.90;;;;;;7364658;19;20054;-61
2023/01/17 02:13:22;;;;;;;5.55;0.88;;;3.00;99.90;;;;;;7361984;19;20025;-61
2023/01/17 02:16:23;;;;;;;4.65;0.82;;;2.90;99.90;;;;;;7366037;19;20835;-61
2023/01/17 02:19:10;;;;;;;6.88;1.35;;;2.90;99.90;;;;;;7364666;19;20015;-61
2023/01/17 02:22:01;;;;;;;5.78;0.75;;;2.90;99.90;;;;;;7365693;19;20018;-61
2023/01/17 02:24:42;;;;;;;1.25;0.60;;;2.90;99.90;;;;;;7362445;19;20029;-61
2023/01/17 02:27:40;;;;;;;6.05;0.80;;;2.80;99.90;;;;;;7362783;19;20038;-61
2023/01/17 02:30:36;;;;;;;4.18;0.77;;;2.80;99.90;;;;;;7362396;19;20026;-61
2023/01/17 02:33:15;;;;;;;3.17;0.80;;;2.80;99.90;;;;;;7368152;19;20518;-64
2023/01/17 02:36:29;;;;;;;5.60;1.40;;;2.80;99.90;;;;;;7365637;19;20614;-61
2023/01/17 02:39:08;;;;;;;6.43;1.13;;;2.80;99.90;;;;;;7364171;19;20042;-61
2023/01/17 02:41:38;;;;;;;7.28;1.30;;;2.80;99.90;;;;;;7363351;19;20041;-61
2023/01/17 02:44:08;;;;;;;3.75;0.80;;;2.90;99.90;;;;;;7357883;19;20022;-61
2023/01/17 02:46:49;;;;;;;6.70;1.00;;;2.80;99.90;;;;;;7366967;19;20237;-60
2023/01/17 02:49:18;;;;;;;4.38;1.08;;;2.80;99.90;;;;;;7360391;19;20544;-60
2023/01/17 02:51:44;;;;;;;5.68;0.98;;;2.80;99.90;;;;;;7363738;19;20018;-60
2023/01/17 02:54:35;;;;;;;2.70;0.75;;;2.80;99.90;;;;;;7358981;19;21015;-61
2023/01/17 02:57:40;;;;;;;4.60;0.95;;;2.80;99.90;;;;;;7367030;19;20025;-64
2023/01/17 03:00:10;;;;;;;2.03;0.80;;;2.80;99.90;;;;;;7374503;19;20056;-60
2023/01/17 03:02:55;;;;;;;5.28;0.77;;;2.80;99.90;;;;;;7360401;19;20374;-61
2023/01/17 03:05:31;;;;;;;4.47;1.00;;;2.80;99.90;;;;;;7365187;19;20028;-60
2023/01/17 03:07:59;;;;;;;7.00;1.05;;;2.80;99.90;;;;;;7363390;19;20043;-61
2023/01/17 03:10:25;;;;;;;8.90;1.33;;;2.80;99.90;;;;;;7366893;19;20022;-61
2023/01/17 03:12:57;;;;;;;4.32;1.15;;;2.90;99.90;;;;;;7357220;19;20026;-61
2023/01/17 03:15:23;;;;;;;8.25;1.23;;;2.90;99.90;;;;;;7363882;19;20095;-61
2023/01/17 03:17:52;;;;;;;8.25;0.82;;;2.90;99.90;;;;;;7365693;19;20015;-64
2023/01/17 03:20:18;;;;;;;5.28;1.17;;;2.90;99.90;;;;;;7374458;19;20888;-64
2023/01/17 03:22:45;;;;;;;3.70;0.73;;;2.90;99.90;;;;;;7375547;19;20035;-64
2023/01/17 03:25:11;;;;;;;6.15;1.15;;;2.90;99.90;;;;;;7374978;19;20025;-64
2023/01/17 03:27:37;;;;;;;5.40;1.45;;;2.90;99.90;;;;;;7374342;19;20023;-65
2023/01/17 03:30:04;;;;;;;5.40;0.80;;;2.80;99.90;;;;;;7375469;19;20018;-64
2023/01/17 03:32:30;;;;;;;2.72;1.05;;;2.80;99.90;;;;;;7372980;19;20027;-64
2023/01/17 03:34:57;;;;;;;5.47;0.93;;;2.80;99.90;;;;;;7371912;19;20042;-65
2023/01/17 03:37:23;;;;;;;5.07;0.90;;;2.70;99.90;;;;;;7372814;19;20018;-64
2023/01/17 03:39:49;;;;;;;4.18;1.10;;;2.80;99.90;;;;;;7372268;19;20034;-65
2023/01/17 03:42:17;;;;;;;5.05;1.40;;;2.70;99.90;;;;;;7374980;19;20090;-65
2023/01/17 03:44:43;;;;;;;7.05;0.93;;;2.70;99.90;;;;;;7372768;19;20488;-65
2023/01/17 03:47:10;;;;;;;6.15;1.23;;;2.70;99.90;;;;;;7370713;19;20018;-64
2023/01/17 03:49:38;;;;;;;8.10;1.52;;;2.70;99.90;;;;;;7372772;19;20098;-65
2023/01/17 03:52:05;;;;;;;5.60;0.90;;;2.70;99.90;;;;;;7363205;19;20042;-61
2023/01/17 03:54:31;;;;;;;8.07;1.40;;;2.70;99.90;;;;;;7359885;19;20038;-61
2023/01/17 03:56:57;;;;;;;4.55;1.15;;;2.60;99.90;;;;;;7364439;19;20039;-61
2023/01/17 03:59:23;;;;;;;3.45;0.80;;;2.60;99.90;;;;;;7353190;19;20029;-61
2023/01/17 04:01:50;;;;;;;8.60;1.77;;;2.60;99.90;;;;;;7363568;19;20023;-61
2023/01/17 04:04:16;;;;;;;4.38;1.02;;;2.60;99.90;;;;;;7364604;19;20030;-61
2023/01/17 04:06:43;;;;;;;5.85;1.00;;;2.60;99.90;;;;;;7364031;19;20026;-61
2023/01/17 04:09:09;;;;;;;3.95;1.00;;;2.50;99.90;;;;;;7362669;19;20014;-61
2023/01/17 04:11:35;;;;;;;7.50;1.20;;;2.60;99.90;;;;;;7361860;19;20018;-61
2023/01/17 04:14:01;;;;;;;5.57;1.48;;;2.60;99.90;;;;;;7364036;19;20125;-61
2023/01/17 04:16:30;;;;;;;5.72;1.20;;;2.60;99.90;;;;;;7361389;19;21780;-61
2023/01/17 04:18:56;;;;;;;6.28;1.10;;;2.60;99.90;;;;;;7364989;19;20878;-61
2023/01/17 04:21:22;;;;;;;5.10;1.38;;;2.60;99.90;;;;;;7358827;19;20035;-60
2023/01/17 04:23:48;;;;;;;4.97;1.13;;;2.50;99.90;;;;;;7363559;19;20018;-61
2023/01/17 04:26:18;;;;;;;3.40;1.15;;;2.50;99.90;;;;;;7360111;19;20037;-61
2023/01/17 04:28:48;;;;;;;6.88;1.02;;;2.40;99.90;;;;;;7362878;19;20035;-61
2023/01/17 04:31:15;;;;;;;5.43;0.85;;;2.30;99.90;;;;;;7358289;19;20105;-61
2023/01/17 04:33:42;;;;;;;3.90;0.85;;;2.30;99.90;;;;;;7363184;19;20018;-61
2023/01/17 04:36:08;;;;;;;7.05;1.25;;;2.20;99.90;;;;;;7360479;19;20029;-61
2023/01/17 04:38:34;;;;;;;4.80;1.40;;;2.20;99.90;;;;;;7361125;19;20269;-62
2023/01/17 04:41:00;;;;;;;2.95;1.02;;;2.10;99.90;;;;;;7360531;19;20014;-61
2023/01/17 04:43:29;;;;;;;5.53;1.27;;;2.10;99.90;;;;;;7357837;19;20026;-61
2023/01/17 04:45:57;;;;;;;6.55;1.48;;;2.10;99.90;;;;;;7361758;19;20402;-64
2023/01/17 04:48:24;;;;;;;8.98;1.27;;;2.00;99.90;;;;;;7369518;19;20026;-65
2023/01/17 04:50:57;;;;;;;5.13;1.35;;;2.00;99.90;;;;;;7369582;19;20026;-64
2023/01/17 04:53:23;;;;;;;5.35;1.30;;;2.00;99.90;;;;;;7367366;19;20019;-64
2023/01/17 04:55:49;;;;;;;6.80;1.00;;;1.90;99.90;;;;;;7368282;19;20021;-65
2023/01/17 04:58:15;;;;;;;4.25;1.00;;;1.90;99.90;;;;;;7368413;19;20029;-65
2023/01/17 05:00:42;;;;;;;9.30;1.40;;;1.90;99.90;;;;;;7365844;19;20026;-65
2023/01/17 05:03:10;;;;;;;7.75;1.83;;;1.90;99.90;;;;;;7368215;19;20015;-65
2023/01/17 05:05:37;;;;;;;10.13;1.40;;;1.80;99.90;;;;;;7369929;19;20021;-64
2023/01/17 05:08:03;;;;;;;9.68;1.70;;;1.80;99.90;;;;;;7368987;19;20110;-65
2023/01/17 05:10:30;;;;;;;6.32;1.38;;;1.80;99.90;;;;;;7366982;19;20018;-65
2023/01/17 05:12:58;;;;;;;7.53;1.30;;;1.80;99.90;;;;;;7369314;19;20019;-65
2023/01/17 05:15:25;;;;;;;8.77;1.08;;;1.80;99.90;;;;;;7367399;19;20345;-64
2023/01/17 05:17:52;;;;;;;7.40;1.60;;;1.80;99.90;;;;;;7370076;19;20117;-64
2023/01/17 05:20:24;;;;;;;9.57;1.20;;;1.70;99.90;;;;;;7369208;19;20023;-64
2023/01/17 05:22:54;;;;;;;9.05;1.80;;;1.70;99.90;;;;;;7369806;19;20030;-64
2023/01/17 05:25:22;;;;;;;4.97;1.10;;;1.60;99.90;;;;;;7368604;19;20960;-64
2023/01/17 05:27:48;;;;;;;5.30;1.10;;;1.60;99.90;;;;;;7365898;19;20393;-64
2023/01/17 05:30:16;;;;;;;9.05;1.58;;;1.60;99.90;;;;;;7364881;19;20018;-64
2023/01/17 05:32:50;;;;;;;7.97;1.33;;;1.50;99.90;;;;;;7368600;19;20523;-64
2023/01/17 05:35:18;;;;;;;5.13;1.27;;;1.50;99.90;;;;;;7370536;19;20316;-64
2023/01/17 05:37:48;;;;;;;7.40;1.15;;;1.40;99.90;;;;;;7372718;19;20018;-61
2023/01/17 05:40:19;;;;;;;3.85;1.15;;;1.40;99.90;;;;;;7366484;19;20126;-61
2023/01/17 05:42:47;;;;;;;8.85;1.00;;;1.30;99.90;;;;;;7370044;19;20102;-61
2023/01/17 05:45:18;;;;;;;4.95;1.00;;;1.30;99.90;;;;;;7365781;19;20030;-62
2023/01/17 05:47:47;;;;;;;7.77;1.10;;;1.20;99.90;;;;;;7362240;19;20421;-61
2023/01/17 05:50:19;;;;;;;7.88;1.55;;;1.20;99.90;;;;;;7366442;19;20084;-63
2023/01/17 05:52:51;;;;;;;8.27;1.20;;;1.20;99.90;;;;;;7369058;19;20885;-64
2023/01/17 05:55:18;;;;;;;6.85;1.63;;;1.20;99.90;;;;;;7370994;19;20031;-63
2023/01/17 05:57:45;;;;;;;6.15;1.27;;;1.20;99.90;;;;;;7369703;19;20569;-61
2023/01/17 06:00:15;;;;;;;9.90;1.67;;;1.20;99.90;;;;;;7367231;19;20033;-61
2023/01/17 06:02:42;;;;;;;6.60;1.50;;;1.20;99.90;;;;;;7370533;19;20132;-61
2023/01/17 06:05:10;;;;;;;7.07;1.35;;;1.10;99.90;;;;;;7366992;19;20616;-62
2023/01/17 06:07:37;;;;;;;6.85;1.33;;;1.10;99.90;;;;;;7367232;19;20086;-62
2023/01/17 06:10:05;;;;;;;6.85;1.65;;;1.10;99.90;;;;;;7367594;19;20530;-62
2023/01/17 06:12:37;;;;;;;7.22;1.17;;;1.10;99.90;;;;;;7370372;19;20101;-62
2023/01/17 06:15:08;;;;;;;10.43;1.65;;;1.10;99.90;;;;;;7366028;19;20023;-62
2023/01/17 06:17:35;;;;;;;6.65;1.23;;;1.10;99.90;;;;;;7369820;19;20026;-61
2023/01/17 06:20:02;;;;;;;10.77;1.70;;;1.10;99.90;;;;;;7363792;19;20039;-61
2023/01/17 06:22:29;;;;;;;8.23;1.25;;;1.10;99.90;;;;;;7368087;19;20057;-61
2023/01/17 06:24:56;;;;;;;6.43;1.20;;;1.00;99.90;;;;;;7366665;19;20049;-62
2023/01/17 06:27:23;;;;;;;7.43;2.22;;;1.00;99.90;;;;;;7372277;19;20045;-64
2023/01/17 06:29:49;;;;;;;9.48;1.92;;;1.10;99.90;;;;;;7372518;19;20022;-64
2023/01/17 06:32:16;;;;;;;11.05;1.33;;;1.10;99.90;;;;;;7365617;19;20034;-65
2023/01/17 06:34:43;;;;;;;4.72;1.10;;;1.10;99.90;;;;;;7374819;19;20489;-65
2023/01/17 06:37:09;;;;;;;6.85;1.52;;;1.00;99.90;;;;;;7373754;19;20018;-65
2023/01/17 06:39:36;;;;;;;5.55;1.58;;;1.00;99.90;;;;;;7373043;19;20018;-65
2023/01/17 06:42:02;;;;;;;7.20;1.48;;;1.10;99.90;;;;;;7372768;19;20051;-65
2023/01/17 06:44:30;;;;;;;8.70;1.30;;;1.00;99.90;;;;;;7374174;19;20014;-65
2023/01/17 06:46:56;;;;;;;3.78;1.40;;;1.00;99.90;;;;;;7374096;19;20082;-65
2023/01/17 06:49:23;;;;;;;10.80;1.88;;;1.00;99.90;;;;;;7373745;19;20485;-65
2023/01/17 06:51:49;;;;;;;5.82;1.40;;;1.00;99.90;;;;;;7369627;19;20036;-62
2023/01/17 06:54:17;;;;;;;3.85;1.42;;;1.00;99.90;;;;;;7365440;19;20022;-62
2023/01/17 06:56:44;;;;;;;7.38;1.52;;;1.00;99.90;;;;;;7365689;19;20018;-62
2023/01/17 06:59:11;;;;;;;5.85;1.13;;;0.90;99.90;;;;;;7367881;19;20022;-62
2023/01/17 07:01:38;;;;;;;3.17;0.90;;;1.00;99.90;;;;;;7367136;19;20102;-62
2023/01/17 07:04:05;;;;;;;6.45;1.48;;;0.90;99.90;;;;;;7369177;19;21471;-65
2023/01/17 07:06:35;;;;;;;7.40;0.90;;;0.90;99.90;;;;;;7376043;19;20777;-65
2023/01/17 07:09:03;;;;;;;4.43;1.35;;;1.00;99.90;;;;;;7375685;19;20034;-65
2023/01/17 07:11:30;;;;;;;2.55;0.80;;;0.90;99.90;;;;;;7373335;19;20022;-65
2023/01/17 07:13:57;;;;;;;4.90;1.00;;;1.00;99.90;;;;;;7367002;19;20029;-62
2023/01/17 07:16:24;;;;;;;8.63;1.25;;;0.90;99.90;;;;;;7365220;19;20523;-62
2023/01/17 07:18:50;;;;;;;6.30;1.20;;;0.90;99.90;;;;;;7365972;19;20028;-62
2023/01/17 07:21:17;;;;;;;2.88;1.02;;;0.90;99.90;;;;;;7364016;19;20026;-62
2023/01/17 07:23:44;;;;;;;8.55;1.20;;;0.90;99.90;;;;;;7363707;19;20389;-63
2023/01/17 07:26:11;;;;;;;2.20;1.08;;;0.90;99.90;;;;;;7361271;19;20426;-62
2023/01/17 07:28:37;;;;;;;1.90;0.77;;;0.90;99.90;;;;;;7363053;19;20018;-62
2023/01/17 07:31:06;;;;;;;3.13;1.10;;;0.90;99.90;;;;;;7364737;19;20022;-65
2023/01/17 07:33:33;;;;;;;1.55;0.70;;;1.00;99.90;;;;;;7364564;19;20646;-65
2023/01/17 07:36:08;;;;;;;3.45;0.90;;;1.00;99.90;;;;;;7375229;19;20471;-65
2023/01/17 07:38:34;;;;;;;8.98;2.50;;;1.00;99.90;;;;;;7369975;19;20604;-65
2023/01/17 07:41:01;;;;;;;7.80;1.42;;;1.00;99.90;;;;;;7369921;19;20059;-65
2023/01/17 07:43:28;;;;;;;9.65;1.30;;;1.00;99.90;;;;;;7370504;19;20022;-62
2023/01/17 07:45:55;;;;;;;5.45;1.00;;;1.00;99.90;;;;;;7362203;19;20029;-62
2023/01/17 07:48:23;;;;;;;10.18;1.35;;;1.00;99.90;;;;;;7362723;19;20060;-62
2023/01/17 07:50:57;;;;;;;5.15;1.35;;;1.00;99.90;;;;;;7361956;19;20022;-65
2023/01/17 07:53:25;;;;;;;5.82;1.38;;;1.00;99.90;;;;;;7371390;19;20516;-65
2023/01/17 07:55:52;;;;;;;5.22;1.40;;;1.00;99.90;;;;;;7371733;19;20493;-65
2023/01/17 07:58:20;;;;;;;7.45;1.50;;;1.10;99.90;;;;;;7369206;19;20030;-65
2023/01/17 08:00:46;;;;;;;7.70;1.27;;;1.00;99.90;;;;;;7372732;19;20094;-65
2023/01/17 08:03:16;;;;;;;4.88;1.20;;;1.10;99.90;;;;;;7368609;19;20026;-66
2023/01/17 08:05:51;;;;;;;7.88;1.48;;;1.10;99.90;;;;;;7370222;19;20019;-66
2023/01/17 08:08:18;;;;;;;6.53;1.40;;;1.10;99.90;;;;;;7367024;19;20423;-66
2023/01/17 08:10:46;;;;;;;7.20;1.65;;;1.20;99.90;;;;;;7368096;19;20018;-63
2023/01/17 08:13:12;;;;;;;7.95;1.50;;;1.20;99.90;;;;;;7361263;19;20017;-63
2023/01/17 08:15:39;;;;;;;5.13;1.08;;;1.30;99.90;;;;;;7366966;19;20022;-62
2023/01/17 08:18:05;;;;;;;6.63;1.35;;;1.30;99.90;;;;;;7362425;19;20019;-63
2023/01/17 08:20:32;;;;;;;7.03;1.20;;;1.50;99.90;;;;;;7366941;19;20784;-63
2023/01/17 08:22:59;;;;;;;4.30;1.13;;;1.60;99.90;;;;;;7362196;19;20023;-62
2023/01/17 08:25:25;;;;;;;4.72;0.90;;;1.60;99.90;;;;;;7361962;19;20552;-63
2023/01/17 08:27:56;;;;;;;8.43;1.58;;;1.70;99.90;;;;;;7369463;19;20014;-65
2023/01/17 08:30:24;;;;;;;4.03;0.97;;;1.80;99.90;;;;;;7368652;19;20017;-65
2023/01/17 08:32:51;;;;;;;9.60;1.55;;;1.80;99.90;;;;;;7370599;19;20026;-66
2023/01/17 08:35:18;;;;;;;3.45;1.10;;;1.90;99.90;;;;;;7368109;19;20022;-66
2023/01/17 08:37:46;;;;;;;3.55;1.00;;;1.90;99.90;;;;;;7370767;19;20042;-62
2023/01/17 08:40:16;;;;;;;5.13;1.27;;;2.00;99.90;;;;;;7360678;19;20458;-62
2023/01/17 08:42:43;;;;;;;3.67;1.20;;;2.10;99.90;;;;;;7362987;19;20213;-63
2023/01/17 08:45:14;;;;;;;5.47;1.20;;;2.20;99.90;;;;;;7364737;19;20018;-62
2023/01/17 08:47:41;;;;;;;3.78;1.63;;;2.30;99.90;;;;;;7366374;19;20022;-62
2023/01/17 08:50:09;;;;;;;5.28;1.00;;;2.50;99.90;;;;;;7361434;19;20017;-63
2023/01/17 08:52:35;;;;;;;7.28;1.13;;;2.60;99.90;;;;;;7366502;19;20021;-62
2023/01/17 08:55:04;;;;;;;6.55;1.38;;;2.70;99.90;;;;;;7366472;19;20481;-62
2023/01/17 08:57:32;;;;;;;3.83;1.52;;;3.00;99.90;;;;;;7363955;19;20707;-62
2023/01/17 08:59:58;;;;;;;5.90;1.27;;;3.40;99.90;;;;;;7365394;19;20014;-63
2023/01/17 09:02:25;;;;;;;4.05;1.33;;;3.40;99.90;;;;;;7362602;19;20015;-62
2023/01/17 09:04:52;;;;;;;5.50;1.80;;;3.40;99.90;;;;;;7362257;19;20032;-62
2023/01/17 09:07:19;;;;;;;8.38;1.45;;;3.70;99.90;;;;;;7365764;19;20014;-65
2023/01/17 09:09:47;;;;;;;3.72;1.25;;;3.90;99.90;;;;;;7370301;19;20026;-66
2023/01/17 09:12:15;;;;;;;7.63;1.70;;;3.70;99.90;;;;;;7371990;19;20010;-66
2023/01/17 09:14:42;;;;;;;7.72;1.75;;;3.80;99.90;;;;;;7370905;19;20021;-62
2023/01/17 09:17:08;;;;;;;5.05;1.40;;;3.60;99.90;;;;;;7372042;19;20885;-66
2023/01/17 09:19:37;;;;;;;6.78;1.73;;;3.40;99.90;;;;;;7377000;19;20645;-66
2023/01/17 09:22:05;;;;;;;6.75;1.75;;;3.00;99.90;;;;;;7375857;19;20370;-66
2023/01/17 09:24:32;;;;;;;7.63;1.90;;;2.90;99.90;;;;;;7372959;19;20094;-66
2023/01/17 09:26:59;;;;;;;10.07;1.80;;;2.70;99.90;;;;;;7376128;19;20114;-66
2023/01/17 09:29:26;;;;;;;5.72;1.65;;;2.70;99.90;;;;;;7374452;19;20015;-66
2023/01/17 09:31:52;;;;;;;5.28;1.75;;;3.00;99.90;;;;;;7376773;19;20057;-65
2023/01/17 09:34:20;;;;;;;7.05;1.63;;;3.10;99.90;;;;;;7369298;19;20022;-62
2023/01/17 09:36:46;;;;;;;10.40;2.30;;;3.30;99.90;;;;;;7369787;19;20026;-62
2023/01/17 09:39:14;;;;;;;6.60;1.95;;;3.60;99.90;;;;;;7369474;19;20022;-65
2023/01/17 09:42:13;;;;;;;4.20;1.58;;;3.80;99.90;;;;;;7372140;19;20053;-61
2023/01/17 09:44:47;;;;;;;8.90;2.08;;;4.00;99.90;;;;;;7372128;19;20014;-65
2023/01/17 09:47:32;;;;;;;7.88;2.30;;;4.20;99.90;;;;;;7374131;19;20010;-66
2023/01/17 09:50:26;;;;;;;7.35;2.00;;;4.40;99.90;;;;;;7375191;19;20130;-65
2023/01/17 09:53:15;;;;;;;5.32;1.77;;;4.40;99.90;;;;;;7373385;19;20397;-65
2023/01/17 09:55:48;;;;;;;4.70;1.50;;;4.70;99.90;;;;;;7372981;19;20516;-65
2023/01/17 09:58:33;;;;;;;7.82;1.90;;;5.00;99.90;;;;;;7367049;19;20117;-62
2023/01/17 10:01:15;;;;;;;7.25;1.73;;;5.10;99.90;;;;;;7374247;19;20022;-62
2023/01/17 10:04:05;;;;;;;4.35;1.75;;;5.50;99.90;;;;;;7372933;19;20051;-62
2023/01/17 10:06:37;;;;;;;4.30;1.40;;;5.90;99.90;;;;;;7371737;19;20769;-62
2023/01/17 10:09:41;;;;;;;8.95;1.70;;;6.00;99.90;;;;;;7370346;19;20022;-62
2023/01/17 10:12:27;;;;;;;6.50;1.80;;;6.10;99.90;;;;;;7367987;19;20038;-63
2023/01/17 10:15:30;;;;;;;6.28;1.75;;;5.80;99.90;;;;;;7371628;19;20114;-61
2023/01/17 10:18:03;;;;;;;5.93;1.13;;;5.80;99.90;;;;;;7365644;19;20106;-62
2023/01/17 10:20:41;;;;;;;4.30;1.65;;;5.50;99.90;;;;;;7371542;19;20038;-65
2023/01/17 10:23:29;;;;;;;4.82;1.50;;;5.40;99.90;;;;;;7372464;19;20494;-66
2023/01/17 10:25:59;;;;;;;5.68;1.80;;;5.30;99.90;;;;;;7368105;19;20025;-62
2023/01/17 10:28:36;;;;;;;5.60;1.75;;;5.10;99.90;;;;;;7367709;19;20018;-62
2023/01/17 10:31:27;;;;;;;6.97;1.92;;;5.20;99.90;;;;;;7367250;19;20018;-62
2023/01/17 10:34:13;;;;;;;7.10;2.03;;;5.40;99.90;;;;;;7369157;19;20031;-61
2023/01/17 10:36:49;;;;;;;4.85;1.42;;;5.60;99.90;;;;;;7369865;19;20011;-65
2023/01/17 10:39:21;;;;;;;6.93;1.48;;;5.90;99.90;;;;;;7368853;19;20018;-65
2023/01/17 10:42:00;;;;;;;9.75;2.05;;;6.40;99.90;;;;;;7368273;19;20029;-65
2023/01/17 10:44:40;;;;;;;4.43;1.52;;;6.10;99.90;;;;;;7369017;19;20018;-65
2023/01/17 10:47:22;;;;;;;6.90;1.45;;;6.20;99.90;;;;;;7372854;19;20014;-65
2023/01/17 10:49:53;;;;;;;4.93;1.55;;;6.00;99.90;;;;;;7372507;19;20025;-65
2023/01/17 10:52:22;;;;;;;3.67;1.13;;;6.00;99.90;;;;;;7368114;19;20022;-65
2023/01/17 10:55:15;;;;;;;5.57;1.60;;;6.00;99.90;;;;;;7369112;19;20018;-62
2023/01/17 10:57:46;;;;;;;8.52;1.45;;;5.90;99.90;;;;;;7368515;19;20016;-62
2023/01/17 11:00:29;;;;;;;6.78;1.40;;;6.20;99.90;;;;;;7366561;19;21564;-61
2023/01/17 11:02:56;;;;;;;6.32;1.77;;;6.00;99.90;;;;;;7368634;19;20106;-61
2023/01/17 11:05:31;;;;;;;5.35;1.65;;;6.30;99.90;;;;;;7369199;19;20057;-61
2023/01/17 11:08:12;;;;;;;3.53;1.38;;;6.80;99.90;;;;;;7369343;19;20485;-61
2023/01/17 11:10:42;;;;;;;8.25;1.73;;;7.20;99.90;;;;;;7371041;19;20023;-61
2023/01/17 11:13:20;;;;;;;4.88;1.67;;;7.80;99.90;;;;;;7365123;19;20732;-61
2023/01/17 11:15:50;;;;;;;9.63;2.03;;;8.30;99.90;;;;;;7365922;19;20015;-64
2023/01/17 11:18:19;;;;;;;6.78;1.70;;;8.50;99.90;;;;;;7368569;19;20031;-65
2023/01/17 11:20:48;;;;;;;8.55;1.92;;;7.80;99.90;;;;;;7365993;19;20033;-65
2023/01/17 11:23:30;;;;;;;4.00;1.60;;;7.60;99.90;;;;;;7369130;19;20014;-65
2023/01/17 11:26:01;;;;;;;4.65;1.40;;;7.30;99.90;;;;;;7369577;19;20015;-61
2023/01/17 11:28:30;;;;;;;6.10;2.10;;;7.70;99.90;;;;;;7365702;19;21122;-61
2023/01/17 11:30:59;;;;;;;8.88;2.13;;;7.70;99.90;;;;;;7366321;19;20022;-61
2023/01/17 11:33:43;;;;;;;5.20;1.48;;;7.20;99.90;;;;;;7365882;19;20035;-65
2023/01/17 11:36:27;;;;;;;7.10;1.88;;;7.00;99.90;;;;;;7365493;19;20031;-65
2023/01/17 11:38:56;;;;;;;8.25;1.85;;;7.20;99.90;;;;;;7367443;19;20137;-65
2023/01/17 11:41:26;;;;;;;6.40;2.20;;;7.30;99.90;;;;;;7362949;19;20032;-61
2023/01/17 11:43:55;;;;;;;3.72;1.65;;;7.70;99.90;;;;;;7360228;19;20536;-61
2023/01/17 11:46:22;;;;;;;6.85;2.08;;;7.40;99.90;;;;;;7363191;19;20031;-64
2023/01/17 11:48:50;;;;;;;3.80;1.52;;;7.30;99.90;;;;;;7370127;19;20014;-65
2023/01/17 11:51:24;;;;;;;8.43;1.73;;;7.40;99.90;;;;;;7364407;19;20035;-65
2023/01/17 11:53:53;;;;;;;6.53;1.80;;;8.10;99.90;;;;;;7362704;19;20119;-65
2023/01/17 11:56:31;;;;;;;7.57;1.98;;;8.70;99.90;;;;;;7363345;19;20023;-65
2023/01/17 11:59:21;;;;;;;6.13;1.90;;;9.00;99.90;;;;;;7367269;19;20365;-64
2023/01/17 12:01:54;;;;;;;5.75;1.50;;;9.40;99.90;;;;;;7362795;19;20025;-64
2023/01/17 12:04:35;;;;;;;5.85;1.30;;;9.90;99.90;;;;;;7360113;19;20439;-61
2023/01/17 12:07:04;;;;;;;8.15;1.90;;;9.90;99.90;;;;;;7365522;19;20034;-61
2023/01/17 12:10:06;;;;;;;4.78;1.30;;;9.90;99.90;;;;;;7364867;19;20863;-61
2023/01/17 12:15:42;;;;;;;4.63;1.13;;;10.20;99.90;;;;;;7365867;19;20733;-64
2023/01/17 12:18:19;;;;;;;4.95;1.67;;;10.10;99.90;;;;;;7362419;19;20089;-64
2023/01/17 12:21:07;;;;;;;3.97;1.00;;;10.10;99.90;;;;;;7364095;19;20094;-64
2023/01/17 12:23:37;;;;;;;5.93;1.38;;;10.00;99.90;;;;;;7361954;19;20022;-60
2023/01/17 12:26:24;;;;;;;3.97;1.10;;;10.10;99.90;;;;;;7361447;19;20015;-61
2023/01/17 12:29:08;;;;;;;3.88;1.13;;;9.70;99.90;;;;;;7363984;19;20607;-61
2023/01/17 12:32:06;;;;;;;3.72;1.40;;;9.90;99.90;;;;;;7362579;19;20030;-64
2023/01/17 12:34:41;;;;;;;3.88;1.30;;;10.20;99.90;;;;;;7361121;19;20631;-61
2023/01/17 12:37:21;;;;;;;5.88;1.85;;;10.20;99.90;;;;;;7360336;19;20773;-61
2023/01/17 12:39:59;;;;;;;4.93;1.40;;;10.00;99.90;;;;;;7365097;19;20018;-61
2023/01/17 12:42:33;;;;;;;3.78;1.48;;;10.10;99.90;;;;;;7359126;19;20047;-60
2023/01/17 12:45:19;;;;;;;5.03;1.52;;;10.10;99.90;;;;;;7362675;19;20045;-60
2023/01/17 12:47:49;;;;;;;3.22;1.20;;;10.00;99.90;;;;;;7365868;19;20022;-60
2023/01/17 12:50:39;;;;;;;4.20;1.17;;;10.30;99.90;;;;;;7361315;19;20030;-61
2023/01/17 12:53:06;;;;;;;4.88;1.48;;;10.20;99.90;;;;;;7365595;19;20027;-61
2023/01/17 12:55:40;;;;;;;4.35;1.35;;;9.50;99.90;;;;;;7363811;19;20019;-60
2023/01/17 12:58:15;;;;;;;4.28;1.30;;;10.00;99.90;;;;;;7363665;19;20026;-61
2023/01/17 13:00:45;;;;;;;4.38;1.80;;;9.80;99.90;;;;;;7359297;19;20795;-61
2023/01/17 13:03:34;;;;;;;5.05;1.40;;;9.50;99.90;;;;;;7364269;19;20410;-60
2023/01/17 13:06:02;;;;;;;7.10;2.47;;;9.60;99.90;;;;;;7360260;19;20620;-60
2023/01/17 13:08:28;;;;;;;8.40;1.90;;;9.40;99.90;;;;;;7364063;19;20014;-60
2023/01/17 13:10:59;;;;;;;5.63;1.70;;;9.90;99.90;;;;;;7361565;19;20022;-60
2023/01/17 13:13:28;;;;;;;4.45;1.73;;;9.60;99.90;;;;;;7360522;19;20363;-61
2023/01/17 13:16:10;;;;;;;9.68;1.80;;;10.00;99.90;;;;;;7360545;19;20336;-61
2023/01/17 13:18:45;;;;;;;4.35;1.80;;;9.70;99.90;;;;;;7361870;19;20765;-64
2023/01/17 13:21:34;;;;;;;5.90;1.70;;;10.30;99.90;;;;;;7361372;19;20524;-64
2023/01/17 13:24:22;;;;;;;4.60;1.95;;;10.00;99.90;;;;;;7364924;19;20022;-64
2023/01/17 13:27:22;;;;;;;3.55;1.83;;;9.60;99.90;;;;;;7360742;19;20450;-63
2023/01/17 13:30:01;;;;;;;7.72;1.63;;;9.90;99.90;;;;;;7359912;19;20026;-64
2023/01/17 13:32:28;;;;;;;6.57;1.70;;;10.20;99.90;;;;;;7359618;19;20043;-64
2023/01/17 13:35:09;;;;;;;6.50;1.73;;;9.00;99.90;;;;;;7363378;19;20502;-63
2023/01/17 13:37:38;;;;;;;3.45;1.50;;;9.00;99.90;;;;;;7360215;19;20015;-62
2023/01/17 13:40:17;;;;;;;9.43;2.22;;;9.10;99.90;;;;;;7362246;19;20027;-64
2023/01/17 13:42:58;;;;;;;6.30;1.70;;;8.90;99.90;;;;;;7363000;19;20019;-63
2023/01/17 13:45:28;;;;;;;6.32;1.20;;;8.80;99.90;;;;;;7359739;19;20039;-64
2023/01/17 13:48:13;;;;;;;4.38;1.95;;;9.20;99.90;;;;;;7355726;19;20663;-64
2023/01/17 13:50:40;;;;;;;4.07;1.52;;;9.90;99.90;;;;;;7363759;19;20899;-64
2023/01/17 13:53:35;;;;;;;5.78;2.15;;;10.00;99.90;;;;;;7360361;19;20033;-64
2023/01/17 13:56:11;;;;;;;3.67;1.50;;;10.00;99.90;;;;;;7361784;19;20041;-63
2023/01/17 13:58:53;;;;;;;6.05;2.03;;;9.50;99.90;;;;;;7368119;19;20026;-63
2023/01/17 14:01:22;;;;;;;7.55;1.80;;;8.60;99.90;;;;;;7365899;19;20027;-60
2023/01/17 14:03:49;;;;;;;5.53;1.95;;;8.50;99.90;;;;;;7369790;19;20018;-60
2023/01/17 14:06:34;;;;;;;9.60;2.25;;;8.70;99.90;;;;;;7366863;19;20025;-63
2023/01/17 14:09:15;;;;;;;4.55;1.67;;;9.00;99.90;;;;;;7369421;19;20516;-63
2023/01/17 14:11:58;;;;;;;3.97;1.65;;;9.20;99.90;;;;;;7366211;19;20475;-63
2023/01/17 14:14:40;;;;;;;5.50;1.67;;;9.50;99.90;;;;;;7365550;19;20117;-63
2023/01/17 14:17:19;;;;;;;;;;;9.60;99.90;;;;;;7369435;19;20047;-63
2023/01/17 14:19:50;;;;;;;5.15;1.40;;;9.70;99.90;;;;;;7366807;19;19922;-60
2023/01/17 14:22:20;;;;;;;5.47;1.40;;;10.00;99.90;;;;;;7366500;19;20126;-60
2023/01/17 14:25:18;;;;;;;6.22;1.77;;;10.10;99.90;;;;;;7365696;19;20026;-60
2023/01/17 14:27:50;;;;;;;4.53;1.75;;;9.90;99.90;;;;;;7365870;19;20026;-64
2023/01/17 14:30:20;;;;;;;4.72;1.77;;;10.00;99.90;;;;;;7366054;19;20058;-63
2023/01/17 14:33:00;;;;;;;4.45;1.40;;;9.60;99.90;;;;;;7365327;19;20022;-63
2023/01/17 14:35:33;;;;;;;5.05;1.70;;;9.10;99.90;;;;;;7370173;19;20019;-63
2023/01/17 14:38:04;;;;;;;5.97;1.60;;;9.20;99.90;;;;;;7367519;19;20045;-65
2023/01/17 14:40:36;;;;;;;3.47;1.50;;;9.20;99.90;;;;;;7366549;19;20114;-65
2023/01/17 14:43:14;;;;;;;5.93;1.73;;;9.20;99.90;;;;;;7364942;19;20053;-61
2023/01/17 14:45:42;;;;;;;5.78;1.60;;;9.20;99.90;;;;;;7369034;19;20034;-60
2023/01/17 14:48:21;;;;;;;5.57;1.63;;;8.90;99.90;;;;;;7364839;19;20056;-61